Terminal Aerodrome Forecast
Issued by NWS

Home | Current Version | Previous Version | Text Only | Print | Product List | Glossary On
Versions: 1 2 3 4 5 6 7 8 9 10 11 12 13
903
FTUS45 KFGZ 250533
TAFPGA
TAF
KPGA 250533Z 2506/2606 VRB04KT P6SM SCT200
     FM252100 28007G15KT P6SM SCT200
     FM260200 30004KT P6SM SCT120 BKN200=

USA.gov is the U.S. government's official web portal to all federal, state and local government web resources and services.